Time;durP1;ratioP1;P1;durP2;ratioP2;P2;SDS_P1;SDS_P2;PMS_P1;PMS_P2;Temp;Humidity;BMP_temperature;BMP_pressure;BME280_temperature;BME280_humidity;BME280_pressure;Samples;Min_cycle;Max_cycle;Signal;HPM_P1;HPM_P2
2024/01/02 00:00:23;;;;;;;;;;;3.70;76.90;;;;;;5071537;28;20094;-73
2024/01/02 00:02:50;;;;;;;12.82;7.57;;;3.70;76.80;;;;;;5071102;28;20311;-71
2024/01/02 00:05:16;;;;;;;8.77;6.57;;;3.70;76.70;;;;;;5072563;28;20093;-73
2024/01/02 00:07:54;;;;;;;9.68;5.85;;;3.70;76.60;;;;;;5151209;27;20619;-70
2024/01/02 00:10:20;;;;;;;9.02;4.32;;;3.70;76.90;;;;;;5107606;28;20447;-70
2024/01/02 00:12:46;;;;;;;9.05;6.97;;;3.70;77.20;;;;;;5049628;28;20040;-70
2024/01/02 00:15:13;;;;;;;12.75;5.68;;;3.70;77.30;;;;;;5049351;28;20379;-70
2024/01/02 00:17:39;;;;;;;9.07;5.80;;;3.70;77.40;;;;;;5031614;28;20095;-70
2024/01/02 00:20:07;;;;;;;11.65;5.32;;;3.70;77.50;;;;;;5047711;28;20040;-70
2024/01/02 00:22:33;;;;;;;13.63;6.25;;;3.70;77.80;;;;;;5068325;28;20089;-72
2024/01/02 00:24:59;;;;;;;12.75;6.70;;;3.70;78.20;;;;;;5067799;28;20033;-72
2024/01/02 00:27:25;;;;;;;17.83;6.93;;;3.70;78.30;;;;;;5069621;28;20044;-70
2024/01/02 00:29:51;;;;;;;13.52;8.45;;;3.70;78.50;;;;;;5067930;28;20041;-72
2024/01/02 00:32:17;;;;;;;15.25;7.75;;;3.70;78.80;;;;;;5050394;28;20094;-72
2024/01/02 00:34:43;;;;;;;15.27;10.68;;;3.70;78.90;;;;;;5049140;28;20490;-70
2024/01/02 00:37:09;;;;;;;12.45;7.05;;;3.70;79.10;;;;;;5031379;28;20041;-71
2024/01/02 00:39:35;;;;;;;15.80;8.30;;;3.70;79.30;;;;;;5049107;28;20083;-70
2024/01/02 00:42:01;;;;;;;9.90;8.05;;;3.70;79.60;;;;;;5047087;28;20041;-70
2024/01/02 00:44:27;;;;;;;9.80;6.22;;;3.70;79.60;;;;;;5048832;28;20034;-72
2024/01/02 00:46:53;;;;;;;13.00;6.15;;;3.70;79.60;;;;;;5049077;28;20758;-71
2024/01/02 00:49:19;;;;;;;7.40;4.80;;;3.70;79.50;;;;;;5047569;28;20033;-71
2024/01/02 00:51:45;;;;;;;24.27;16.05;;;3.70;79.40;;;;;;5048369;28;20087;-70
2024/01/02 00:54:11;;;;;;;15.23;7.15;;;3.70;79.30;;;;;;5047436;28;20040;-70
2024/01/02 00:56:37;;;;;;;8.07;5.05;;;3.70;79.60;;;;;;5047412;28;20038;-70
2024/01/02 00:59:03;;;;;;;12.10;7.55;;;3.60;79.80;;;;;;5048576;28;20033;-71
2024/01/02 01:01:29;;;;;;;11.40;6.05;;;3.50;80.30;;;;;;5048473;28;20549;-70
2024/01/02 01:03:55;;;;;;;6.45;3.40;;;3.40;80.30;;;;;;5030672;28;20033;-72
2024/01/02 01:06:21;;;;;;;10.07;6.10;;;3.40;80.60;;;;;;5048312;28;20053;-71
2024/01/02 01:08:47;;;;;;;6.30;3.47;;;3.30;80.70;;;;;;5048354;28;20095;-71
2024/01/02 01:11:13;;;;;;;9.70;5.60;;;3.30;80.60;;;;;;5046687;28;20041;-70
2024/01/02 01:13:40;;;;;;;9.63;4.22;;;3.20;80.50;;;;;;5030828;28;20382;-70
2024/01/02 01:16:06;;;;;;;7.32;5.15;;;3.20;80.50;;;;;;5046982;28;20056;-72
2024/01/02 01:18:32;;;;;;;11.20;4.80;;;3.20;80.30;;;;;;5020980;28;20017;-70
2024/01/02 01:20:58;;;;;;;9.85;5.13;;;3.10;80.00;;;;;;5034616;28;20433;-72
2024/01/02 01:23:24;;;;;;;7.07;5.47;;;3.00;80.00;;;;;;5035070;28;20033;-70
2024/01/02 01:25:50;;;;;;;7.25;3.53;;;3.10;80.40;;;;;;5034445;28;20045;-71
2024/01/02 01:28:16;;;;;;;7.45;3.58;;;3.10;80.50;;;;;;5034950;28;20045;-71
2024/01/02 01:30:42;;;;;;;13.70;3.88;;;3.20;80.20;;;;;;5034173;28;20076;-72
2024/01/02 01:33:09;;;;;;;6.05;3.88;;;3.20;80.30;;;;;;5034775;28;20037;-72
2024/01/02 01:35:35;;;;;;;5.95;3.97;;;3.20;80.20;;;;;;5034654;28;20057;-72
2024/01/02 01:38:01;;;;;;;5.15;2.42;;;3.10;80.00;;;;;;5033514;28;20041;-72
2024/01/02 01:40:27;;;;;;;7.93;5.10;;;3.10;80.10;;;;;;5032828;28;20148;-70
2024/01/02 01:42:53;;;;;;;9.88;5.78;;;3.10;80.10;;;;;;5016761;28;20044;-72
2024/01/02 01:45:20;;;;;;;4.45;2.47;;;3.10;80.60;;;;;;5033068;28;20037;-71
2024/01/02 01:47:46;;;;;;;4.95;3.53;;;3.10;80.70;;;;;;5033260;28;20128;-73
2024/01/02 01:50:13;;;;;;;5.70;4.35;;;3.10;81.10;;;;;;5033769;28;20095;-72
2024/01/02 01:52:41;;;;;;;5.82;2.45;;;3.10;81.00;;;;;;5033561;28;20208;-70
2024/01/02 01:55:07;;;;;;;6.97;3.55;;;3.00;81.20;;;;;;5033067;28;20096;-72
2024/01/02 01:57:34;;;;;;;5.60;1.95;;;3.00;80.90;;;;;;5033507;28;20029;-70
2024/01/02 02:00:00;;;;;;;4.72;2.53;;;2.90;81.90;;;;;;5034175;28;20041;-70
2024/01/02 02:02:26;;;;;;;6.80;2.30;;;2.80;81.50;;;;;;5032470;28;20040;-72
2024/01/02 02:04:53;;;;;;;;;;;2.80;81.90;;;;;;5034719;28;20095;-70
2024/01/02 02:07:19;;;;;;;6.30;2.08;;;2.80;82.00;;;;;;5032689;28;19921;-71
2024/01/02 02:09:45;;;;;;;3.28;2.28;;;2.80;82.50;;;;;;5033989;28;20037;-70
2024/01/02 02:14:52;;;;;;;5.55;2.88;;;2.70;82.00;;;;;;5034044;28;20041;-71
2024/01/02 02:17:22;;;;;;;5.97;3.67;;;2.70;81.60;;;;;;5032656;28;20087;-72
2024/01/02 02:19:48;;;;;;;5.78;3.35;;;2.60;81.40;;;;;;5032688;28;20025;-71
2024/01/02 02:22:17;;;;;;;8.38;3.67;;;2.60;81.50;;;;;;5033586;28;20037;-70
2024/01/02 02:24:43;;;;;;;9.95;1.88;;;2.50;81.00;;;;;;5032679;28;20052;-71
2024/01/02 02:27:11;;;;;;;4.07;2.50;;;2.50;81.50;;;;;;5033962;28;20383;-70
2024/01/02 02:29:37;;;;;;;5.20;2.53;;;2.40;81.20;;;;;;5031818;28;20040;-70
2024/01/02 02:32:03;;;;;;;4.30;2.10;;;2.40;81.20;;;;;;5015205;28;20037;-70
2024/01/02 02:34:29;;;;;;;;;;;2.40;80.40;;;;;;5033049;28;20034;-70
2024/01/02 02:36:55;;;;;;;4.72;2.55;;;2.40;80.60;;;;;;5033691;28;20357;-71
2024/01/02 02:39:21;;;;;;;4.45;2.65;;;2.40;80.60;;;;;;5032281;28;20513;-72
2024/01/02 02:41:47;;;;;;;5.25;3.10;;;2.30;80.00;;;;;;5031659;28;20095;-72
2024/01/02 02:44:13;;;;;;;1.92;1.48;;;2.30;79.90;;;;;;5033371;28;20037;-72
2024/01/02 02:46:39;;;;;;;3.58;2.10;;;2.20;79.70;;;;;;5031950;28;20045;-72
2024/01/02 02:49:05;;;;;;;5.65;3.30;;;2.20;79.80;;;;;;5032193;28;20095;-71
2024/01/02 02:51:31;;;;;;;5.53;3.00;;;2.20;79.80;;;;;;5031584;28;20095;-71
2024/01/02 02:53:58;;;;;;;5.78;3.35;;;2.20;79.80;;;;;;5033196;28;20071;-72
2024/01/02 02:56:24;;;;;;;3.30;2.78;;;2.20;79.30;;;;;;5031954;28;20034;-71
2024/01/02 02:58:50;;;;;;;5.95;3.40;;;2.20;79.30;;;;;;5015232;28;20032;-71
2024/01/02 03:01:35;;;;;;;3.83;1.88;;;2.20;79.40;;;;;;5031269;28;20514;-70
2024/01/02 03:04:01;;;;;;;3.33;1.88;;;2.20;79.50;;;;;;5015311;28;20056;-72
2024/01/02 03:06:27;;;;;;;4.05;2.72;;;2.20;79.20;;;;;;5032844;28;20391;-72
2024/01/02 03:08:53;;;;;;;3.90;1.92;;;2.20;79.50;;;;;;5032900;28;20030;-71
2024/01/02 03:11:19;;;;;;;4.35;2.63;;;2.30;79.30;;;;;;5032332;28;20033;-71
2024/01/02 03:13:45;;;;;;;2.45;1.50;;;2.30;79.30;;;;;;5032862;28;20438;-71
2024/01/02 03:16:12;;;;;;;3.85;2.30;;;2.30;80.00;;;;;;5031491;28;20124;-70
2024/01/02 03:18:38;;;;;;;6.13;1.90;;;2.30;79.20;;;;;;5031600;28;20398;-71
2024/01/02 03:21:08;;;;;;;5.40;2.88;;;2.20;78.70;;;;;;5035851;28;20076;-71
2024/01/02 03:23:34;;;;;;;3.85;1.80;;;2.20;78.80;;;;;;5031663;28;20021;-71
2024/01/02 03:26:00;;;;;;;4.90;2.72;;;2.20;79.00;;;;;;5032552;28;20045;-72
2024/01/02 03:28:26;;;;;;;5.03;2.10;;;2.20;79.10;;;;;;5032700;28;20042;-70
2024/01/02 03:30:52;;;;;;;4.15;1.73;;;2.10;79.00;;;;;;5032121;28;20068;-70
2024/01/02 03:33:18;;;;;;;4.82;2.50;;;2.10;79.40;;;;;;5032609;28;20580;-71
2024/01/02 03:35:45;;;;;;;5.30;2.38;;;2.20;79.40;;;;;;5014610;28;20502;-71
2024/01/02 03:38:11;;;;;;;;;;;2.30;79.40;;;;;;5032961;28;20441;-70
2024/01/02 03:40:37;;;;;;;4.82;2.47;;;2.30;79.00;;;;;;5036389;28;19921;-70
2024/01/02 03:43:03;;;;;;;3.63;2.00;;;2.30;78.90;;;;;;5034519;28;20040;-71
2024/01/02 03:45:29;;;;;;;;;;;2.30;79.10;;;;;;5052599;28;20460;-71
2024/01/02 03:47:55;;;;;;;2.92;1.67;;;2.30;79.00;;;;;;5052314;28;20124;-71
2024/01/02 03:50:21;;;;;;;2.67;1.30;;;2.30;79.00;;;;;;5047584;28;20040;-70
2024/01/02 03:52:47;;;;;;;2.25;1.35;;;2.40;78.90;;;;;;5032406;28;20038;-72
2024/01/02 03:55:13;;;;;;;6.30;3.08;;;2.40;78.90;;;;;;5030744;28;20490;-70
2024/01/02 03:57:39;;;;;;;2.03;1.25;;;2.40;79.00;;;;;;5031130;28;20075;-71
2024/01/02 04:00:06;;;;;;;3.97;2.03;;;2.40;79.00;;;;;;5031575;28;20049;-70
2024/01/02 04:02:32;;;;;;;2.38;1.52;;;2.40;78.60;;;;;;5032565;28;20080;-72
2024/01/02 04:04:58;;;;;;;5.35;2.05;;;2.40;78.80;;;;;;5031147;28;20033;-72
2024/01/02 04:07:24;;;;;;;5.10;2.28;;;2.40;78.60;;;;;;5031832;28;20053;-71
2024/01/02 04:09:51;;;;;;;4.93;1.23;;;2.40;79.50;;;;;;5014514;28;20076;-71
2024/01/02 04:12:17;;;;;;;4.32;1.75;;;2.40;79.50;;;;;;5030272;28;20514;-71
2024/01/02 04:14:43;;;;;;;;;;;2.40;78.90;;;;;;5014841;28;20022;-71
2024/01/02 04:17:09;;;;;;;4.50;2.10;;;2.40;79.30;;;;;;5032455;28;20020;-70
2024/01/02 04:19:35;;;;;;;3.00;1.50;;;2.40;79.10;;;;;;5030861;28;20083;-70
2024/01/02 04:22:01;;;;;;;2.05;1.00;;;2.40;78.90;;;;;;5031557;28;20041;-71
2024/01/02 04:24:27;;;;;;;7.07;1.55;;;2.40;78.90;;;;;;5032120;28;20040;-71
2024/01/02 04:26:53;;;;;;;3.38;1.85;;;2.40;78.80;;;;;;5030585;28;20045;-70
2024/01/02 04:29:19;;;;;;;8.02;2.72;;;2.40;79.00;;;;;;5030756;28;20025;-72
2024/01/02 04:31:45;;;;;;;4.55;2.40;;;2.40;79.00;;;;;;5031296;28;20397;-70
2024/01/02 04:34:11;;;;;;;2.80;2.28;;;2.40;78.90;;;;;;5030839;28;20060;-70
2024/01/02 04:36:58;;;;;;;3.65;2.20;;;2.40;79.00;;;;;;5030654;28;20049;-71
2024/01/02 04:39:24;;;;;;;3.42;1.98;;;2.40;78.60;;;;;;5030532;28;20084;-70
2024/01/02 04:41:52;;;;;;;2.65;1.25;;;2.40;78.70;;;;;;5031582;28;20042;-70
2024/01/02 04:44:18;;;;;;;3.72;1.73;;;2.30;79.30;;;;;;5030587;28;20088;-72
2024/01/02 04:46:44;;;;;;;3.35;1.73;;;2.20;78.80;;;;;;5030367;28;20049;-71
2024/01/02 04:49:10;;;;;;;4.35;2.15;;;2.20;79.40;;;;;;5030494;28;20083;-71
2024/01/02 04:51:36;;;;;;;;;;;2.10;79.50;;;;;;5030273;28;20124;-70
2024/01/02 04:54:02;;;;;;;4.10;2.05;;;2.10;79.50;;;;;;5033294;28;20312;-70
2024/01/02 04:56:28;;;;;;;4.90;1.88;;;2.10;79.70;;;;;;5035306;28;20107;-71
2024/01/02 04:58:54;;;;;;;3.70;2.28;;;2.10;79.50;;;;;;5035464;28;20453;-71
2024/01/02 05:01:20;;;;;;;6.47;1.85;;;2.10;79.90;;;;;;5034946;28;20037;-70
2024/01/02 05:03:46;;;;;;;5.30;2.63;;;2.10;79.80;;;;;;5034202;28;20033;-70
2024/01/02 05:06:12;;;;;;;;;;;2.20;79.60;;;;;;5035591;28;20103;-71
2024/01/02 05:08:38;;;;;;;2.00;1.02;;;2.20;79.30;;;;;;5050594;28;20011;-72
2024/01/02 05:11:04;;;;;;;2.88;1.75;;;2.20;79.20;;;;;;5034816;28;20038;-70
2024/01/02 05:13:30;;;;;;;4.00;1.90;;;2.20;79.30;;;;;;5033707;28;20032;-70
2024/01/02 05:15:56;;;;;;;2.13;1.50;;;2.20;79.10;;;;;;5035210;28;20048;-71
2024/01/02 05:18:23;;;;;;;2.05;1.23;;;2.20;79.60;;;;;;5033850;28;20437;-71
2024/01/02 05:20:49;;;;;;;2.80;2.20;;;2.20;80.40;;;;;;5032917;28;20406;-71
2024/01/02 05:23:15;;;;;;;2.53;1.45;;;2.20;79.30;;;;;;5033873;28;20091;-70
2024/01/02 05:25:42;;;;;;;4.93;2.20;;;2.20;79.20;;;;;;5034613;28;20049;-72
2024/01/02 05:28:08;;;;;;;3.22;1.95;;;2.20;78.70;;;;;;5034946;28;20449;-71
2024/01/02 05:30:34;;;;;;;3.63;2.33;;;2.10;78.90;;;;;;5034225;28;20491;-71
2024/01/02 05:33:00;;;;;;;7.18;2.65;;;2.10;79.20;;;;;;5034811;28;20029;-71
2024/01/02 05:35:26;;;;;;;3.60;1.90;;;2.10;79.30;;;;;;5033336;28;20033;-72
2024/01/02 05:37:52;;;;;;;3.20;1.52;;;2.10;79.30;;;;;;5034704;28;20108;-70
2024/01/02 05:40:18;;;;;;;3.78;2.75;;;2.10;79.30;;;;;;5033835;28;20037;-72
2024/01/02 05:42:44;;;;;;;2.90;1.55;;;2.10;79.10;;;;;;5032865;28;20363;-72
2024/01/02 05:45:10;;;;;;;2.28;1.67;;;2.00;78.70;;;;;;5034394;28;20033;-70
2024/01/02 05:47:36;;;;;;;1.77;0.80;;;1.90;78.70;;;;;;5034485;28;20037;-72
2024/01/02 05:50:02;;;;;;;3.13;2.08;;;1.80;78.90;;;;;;5033266;28;20034;-72
2024/01/02 05:52:28;;;;;;;;;;;1.80;79.40;;;;;;5033333;28;20171;-70
2024/01/02 05:54:54;;;;;;;4.35;1.63;;;1.80;79.30;;;;;;5034438;28;20288;-72
2024/01/02 05:57:20;;;;;;;1.40;0.80;;;1.70;79.80;;;;;;5034608;28;20033;-70
2024/01/02 05:59:46;;;;;;;1.88;1.10;;;1.70;80.00;;;;;;5033124;28;20442;-71
2024/01/02 06:02:12;;;;;;;4.68;1.33;;;1.70;79.90;;;;;;5034029;28;20044;-70
2024/01/02 06:04:38;;;;;;;1.17;0.68;;;1.70;79.60;;;;;;5032652;28;20033;-72
2024/01/02 06:07:04;;;;;;;1.75;0.98;;;1.70;79.20;;;;;;5033891;28;20243;-71
2024/01/02 06:09:31;;;;;;;1.98;1.08;;;1.80;79.10;;;;;;5034066;28;20387;-70
2024/01/02 06:11:57;;;;;;;2.33;1.52;;;1.80;79.00;;;;;;5048174;28;20456;-72
2024/01/02 06:14:23;;;;;;;2.97;1.45;;;1.80;79.10;;;;;;5052677;28;20067;-70
2024/01/02 06:16:49;;;;;;;2.38;1.20;;;1.80;79.80;;;;;;5035941;28;20372;-72
2024/01/02 06:19:18;;;;;;;2.60;1.40;;;1.80;78.70;;;;;;5053732;28;20029;-70
2024/01/02 06:21:45;;;;;;;2.80;1.52;;;1.90;78.60;;;;;;5039054;28;20048;-71
2024/01/02 06:24:11;;;;;;;3.30;2.20;;;1.80;78.70;;;;;;5033898;28;20513;-70
2024/01/02 06:26:37;;;;;;;5.55;3.25;;;1.90;78.80;;;;;;5032414;28;20091;-72
2024/01/02 06:29:03;;;;;;;2.15;1.20;;;1.90;78.70;;;;;;5032744;28;20433;-72
2024/01/02 06:31:29;;;;;;;2.83;1.50;;;1.90;78.60;;;;;;5033329;28;20040;-72
2024/01/02 06:33:55;;;;;;;1.92;0.95;;;1.90;78.50;;;;;;5032464;28;20075;-69
2024/01/02 06:36:21;;;;;;;3.75;2.40;;;1.90;78.20;;;;;;5015806;28;20046;-71
2024/01/02 06:38:49;;;;;;;1.85;1.23;;;1.90;78.40;;;;;;5033616;28;20088;-72
2024/01/02 06:41:15;;;;;;;3.97;2.28;;;1.90;77.90;;;;;;5031629;28;20461;-70
2024/01/02 06:43:41;;;;;;;4.47;1.77;;;1.90;78.00;;;;;;5015828;28;20075;-72
2024/01/02 06:46:07;;;;;;;3.05;2.28;;;1.90;78.30;;;;;;5031921;28;20056;-72
2024/01/02 06:48:35;;;;;;;4.53;2.90;;;1.90;78.10;;;;;;5033433;28;20032;-71
2024/01/02 06:51:01;;;;;;;6.53;2.33;;;1.90;78.20;;;;;;5014925;28;20045;-70
2024/01/02 06:53:27;;;;;;;3.40;2.13;;;1.90;78.10;;;;;;5033200;28;20037;-70
2024/01/02 06:55:53;;;;;;;4.25;2.88;;;2.00;77.80;;;;;;5031878;28;20383;-70
2024/01/02 06:58:19;;;;;;;4.15;2.20;;;2.00;77.70;;;;;;5032094;28;20036;-71
2024/01/02 07:00:45;;;;;;;3.22;2.33;;;2.00;77.70;;;;;;5031224;28;20041;-70
2024/01/02 07:03:11;;;;;;;3.70;2.53;;;2.00;77.80;;;;;;5033148;28;20033;-70
2024/01/02 07:05:37;;;;;;;2.92;1.30;;;2.10;78.00;;;;;;5032716;28;20479;-70
2024/01/02 07:08:03;;;;;;;2.90;1.70;;;2.20;78.10;;;;;;5032958;28;20041;-70
2024/01/02 07:10:29;;;;;;;3.05;1.60;;;2.20;77.50;;;;;;5031234;28;20375;-70
2024/01/02 07:12:56;;;;;;;3.25;2.65;;;2.30;78.00;;;;;;5031857;28;20057;-72
2024/01/02 07:15:21;;;;;;;;;;;2.40;78.80;;;;;;5031451;28;20406;-72
2024/01/02 07:17:48;;;;;;;3.10;1.42;;;2.40;77.90;;;;;;5032693;28;20008;-72
2024/01/02 07:20:14;;;;;;;;;;;2.40;77.80;;;;;;5031605;28;20087;-71
2024/01/02 07:22:40;;;;;;;2.97;2.45;;;2.50;78.10;;;;;;5031482;28;19917;-70
2024/01/02 07:25:07;;;;;;;9.10;3.00;;;2.50;78.20;;;;;;5031294;28;20061;-70
2024/01/02 07:27:33;;;;;;;6.03;2.88;;;2.60;77.50;;;;;;5033168;28;20037;-72
2024/01/02 07:29:59;;;;;;;5.22;3.35;;;2.60;78.10;;;;;;5032646;28;20037;-71
2024/01/02 07:32:25;;;;;;;6.63;3.65;;;2.70;78.20;;;;;;5030923;28;20037;-70
2024/01/02 07:34:51;;;;;;;7.10;4.93;;;2.70;78.10;;;;;;5031279;28;20037;-71
2024/01/02 07:37:17;;;;;;;7.43;3.53;;;2.80;78.00;;;;;;5032939;28;20095;-71
2024/01/02 07:39:44;;;;;;;3.17;2.17;;;2.80;78.20;;;;;;5032523;28;20037;-71
2024/01/02 07:42:10;;;;;;;5.72;2.42;;;2.80;78.60;;;;;;5030737;28;20033;-71
2024/01/02 07:44:36;;;;;;;10.35;6.40;;;2.90;78.60;;;;;;5014615;28;20029;-70
2024/01/02 07:47:03;;;;;;;9.77;5.65;;;3.00;78.40;;;;;;5031198;28;20037;-72
2024/01/02 07:49:29;;;;;;;9.77;3.88;;;3.00;78.30;;;;;;5031249;28;20064;-71
2024/01/02 07:51:55;;;;;;;4.35;3.05;;;3.00;78.50;;;;;;5031383;28;20116;-72
2024/01/02 07:54:21;;;;;;;3.65;1.70;;;3.00;78.70;;;;;;5032425;28;20095;-71
2024/01/02 07:56:47;;;;;;;;;;;3.10;78.40;;;;;;5032887;28;20387;-70
2024/01/02 07:59:17;;;;;;;2.85;1.58;;;3.20;79.10;;;;;;5014707;28;20004;-71
2024/01/02 08:01:43;;;;;;;6.28;3.22;;;3.20;79.70;;;;;;5031796;28;20117;-71
2024/01/02 08:04:09;;;;;;;1.80;0.70;;;3.30;80.50;;;;;;5014447;28;20025;-71
2024/01/02 08:06:35;;;;;;;0.77;0.70;;;3.40;81.30;;;;;;5031821;28;20053;-70
2024/01/02 08:09:01;;;;;;;1.10;0.82;;;3.40;82.50;;;;;;5030582;28;20033;-71
2024/01/02 08:11:27;;;;;;;1.50;0.90;;;3.40;83.40;;;;;;5030502;28;20050;-72
2024/01/02 08:13:53;;;;;;;1.15;0.82;;;3.50;84.20;;;;;;5030642;28;20112;-71
2024/01/02 08:16:20;;;;;;;1.30;0.68;;;3.60;84.40;;;;;;5032327;28;20041;-70
2024/01/02 08:18:46;;;;;;;;;;;3.50;84.80;;;;;;5032384;28;20058;-70
2024/01/02 08:21:12;;;;;;;2.65;0.80;;;3.70;84.90;;;;;;5030018;28;19932;-71
2024/01/02 08:23:38;;;;;;;1.45;0.98;;;3.70;84.70;;;;;;5031032;28;20506;-70
2024/01/02 08:26:24;;;;;;;1.73;0.55;;;3.80;85.10;;;;;;5014059;28;20056;-70
2024/01/02 08:28:50;;;;;;;0.28;0.28;;;3.80;85.50;;;;;;5034598;28;20121;-70
2024/01/02 08:31:16;;;;;;;1.27;0.43;;;3.80;85.60;;;;;;5034356;28;20429;-70
2024/01/02 08:33:43;;;;;;;1.85;0.73;;;3.80;85.60;;;;;;5034641;28;20045;-70
2024/01/02 08:36:11;;;;;;;0.93;0.40;;;3.90;86.00;;;;;;5034520;28;20128;-70
2024/01/02 08:38:39;;;;;;;0.98;0.60;;;3.90;86.10;;;;;;5034518;28;20090;-71
2024/01/02 08:41:07;;;;;;;1.40;0.45;;;3.80;85.60;;;;;;5017192;28;20049;-70
2024/01/02 08:43:33;;;;;;;0.30;0.30;;;3.90;86.10;;;;;;5035818;28;20076;-71
2024/01/02 08:46:00;;;;;;;2.70;1.33;;;3.90;85.70;;;;;;5034209;28;20380;-72
2024/01/02 08:48:26;;;;;;;0.50;0.50;;;3.90;85.40;;;;;;5017919;28;20037;-69
2024/01/02 08:50:52;;;;;;;0.47;0.47;;;4.00;85.30;;;;;;5034903;28;20116;-71
2024/01/02 08:53:18;;;;;;;0.50;0.38;;;4.00;84.80;;;;;;5034422;28;20043;-69
2024/01/02 08:55:44;;;;;;;0.60;0.38;;;4.00;84.40;;;;;;5035324;28;20041;-70
2024/01/02 08:58:12;;;;;;;0.77;0.43;;;4.00;83.60;;;;;;5034251;28;20303;-70
2024/01/02 09:00:38;;;;;;;1.40;0.70;;;3.90;83.20;;;;;;5034714;28;20045;-71
2024/01/02 09:03:05;;;;;;;;;;;3.80;82.40;;;;;;5034662;28;20387;-70
2024/01/02 09:05:31;;;;;;;0.35;0.30;;;3.80;82.40;;;;;;5033834;28;20129;-70
2024/01/02 09:07:59;;;;;;;2.33;1.25;;;3.80;82.80;;;;;;5034094;28;20033;-70
2024/01/02 09:10:25;;;;;;;0.68;0.68;;;4.00;82.30;;;;;;5017087;28;20037;-71
2024/01/02 09:12:51;;;;;;;1.05;0.68;;;4.00;82.10;;;;;;5033987;28;20414;-70
2024/01/02 09:15:17;;;;;;;1.17;0.35;;;4.10;82.10;;;;;;5034945;28;20051;-72
2024/01/02 09:17:43;;;;;;;0.20;0.20;;;4.10;81.40;;;;;;5050666;28;20045;-72
2024/01/02 09:20:11;;;;;;;1.90;0.93;;;4.10;80.90;;;;;;5032968;28;20487;-70
2024/01/02 09:22:38;;;;;;;1.73;0.65;;;4.10;81.40;;;;;;5033934;28;20026;-70
2024/01/02 09:25:05;;;;;;;1.00;0.55;;;4.10;81.50;;;;;;5033634;28;20037;-72
2024/01/02 09:27:34;;;;;;;0.32;0.30;;;4.30;80.70;;;;;;5033795;28;20048;-72
2024/01/02 09:30:00;;;;;;;1.08;0.90;;;4.30;80.90;;;;;;5017122;28;20391;-70
2024/01/02 09:32:27;;;;;;;1.27;0.77;;;4.40;79.90;;;;;;5033433;28;20045;-69
2024/01/02 09:34:53;;;;;;;0.77;0.43;;;4.50;80.20;;;;;;5034790;28;20394;-70
2024/01/02 09:37:19;;;;;;;1.92;0.70;;;4.50;79.60;;;;;;5033612;28;20033;-71
2024/01/02 09:39:45;;;;;;;2.55;1.42;;;4.60;79.40;;;;;;5034210;28;20029;-72
2024/01/02 09:42:40;;;;;;;4.28;1.35;;;4.70;79.10;;;;;;5032940;28;20068;-70
2024/01/02 09:45:48;;;;;;;1.88;0.82;;;5.00;78.20;;;;;;5033178;28;20075;-70
2024/01/02 09:49:11;;;;;;;2.65;1.50;;;5.20;77.60;;;;;;5033337;28;20480;-70
2024/01/02 09:51:48;;;;;;;2.50;1.33;;;5.50;76.70;;;;;;5034142;28;20053;-70
2024/01/02 09:54:20;;;;;;;1.58;0.88;;;5.50;75.30;;;;;;5033262;28;20071;-71
2024/01/02 09:57:12;;;;;;;1.45;0.82;;;5.50;75.20;;;;;;5034422;28;20578;-71
2024/01/02 10:00:11;;;;;;;1.60;1.02;;;5.80;75.00;;;;;;5034350;28;20041;-72
2024/01/02 10:02:59;;;;;;;1.27;0.57;;;5.90;74.70;;;;;;5054228;28;20049;-72
2024/01/02 10:05:59;;;;;;;1.38;0.93;;;6.10;73.90;;;;;;5054430;28;20033;-71
2024/01/02 10:09:21;;;;;;;1.42;0.55;;;6.10;73.20;;;;;;5036219;28;20627;-72
2024/01/02 10:12:24;;;;;;;0.93;0.70;;;6.00;73.10;;;;;;5053673;28;20045;-72
2024/01/02 10:15:46;;;;;;;1.67;1.13;;;5.90;74.00;;;;;;5053795;28;20112;-70
2024/01/02 10:18:28;;;;;;;11.95;1.35;;;6.10;73.80;;;;;;5053758;28;20036;-72
2024/01/02 10:21:13;;;;;;;3.20;1.55;;;6.10;72.40;;;;;;5051896;28;20091;-70
2024/01/02 10:24:01;;;;;;;2.50;1.35;;;6.20;72.60;;;;;;5053847;28;20057;-69
2024/01/02 10:26:29;;;;;;;;;;;6.20;72.50;;;;;;5053168;28;20033;-69
2024/01/02 10:29:04;;;;;;;6.32;3.20;;;6.20;73.40;;;;;;5069129;28;19987;-71
2024/01/02 10:32:16;;;;;;;3.13;1.85;;;6.20;72.20;;;;;;5048713;28;20394;-70
2024/01/02 10:35:20;;;;;;;3.75;1.67;;;6.30;72.30;;;;;;5032403;28;20033;-70
2024/01/02 10:38:10;;;;;;;1.42;0.70;;;6.30;72.60;;;;;;5032393;28;20116;-71
2024/01/02 10:40:43;;;;;;;4.95;3.45;;;6.20;73.10;;;;;;5031785;28;20038;-71
2024/01/02 10:43:31;;;;;;;3.10;1.55;;;6.50;72.90;;;;;;5015670;28;20490;-71
2024/01/02 10:46:25;;;;;;;1.85;1.10;;;6.60;72.80;;;;;;5015835;28;20021;-71
2024/01/02 10:49:41;;;;;;;0.98;0.43;;;6.60;72.30;;;;;;5032184;28;20196;-71
2024/01/02 10:52:54;;;;;;;1.80;1.17;;;6.60;72.30;;;;;;5030943;28;20049;-71
2024/01/02 10:55:37;;;;;;;1.15;0.50;;;6.50;72.00;;;;;;5031719;28;20140;-70
2024/01/02 10:58:25;;;;;;;2.65;1.42;;;6.40;72.30;;;;;;5031983;28;20025;-69
2024/01/02 11:01:28;;;;;;;0.85;0.55;;;6.40;72.90;;;;;;5031279;28;20099;-71
2024/01/02 11:04:32;;;;;;;0.88;0.77;;;6.40;72.60;;;;;;5031869;28;20107;-71
2024/01/02 11:07:06;;;;;;;0.40;0.40;;;6.40;72.50;;;;;;5031413;28;20506;-69
2024/01/02 11:10:10;;;;;;;2.50;0.90;;;6.40;72.40;;;;;;5031739;28;20040;-71
2024/01/02 11:13:15;;;;;;;0.93;0.73;;;6.40;72.90;;;;;;5052938;28;20375;-70
2024/01/02 11:15:41;;;;;;;1.90;1.58;;;6.60;72.50;;;;;;5034751;28;20045;-71
2024/01/02 11:18:07;;;;;;;1.30;0.40;;;6.60;72.30;;;;;;5034894;28;20037;-71
2024/01/02 11:21:30;;;;;;;2.20;1.23;;;6.50;72.10;;;;;;5050779;28;20532;-71
2024/01/02 11:24:00;;;;;;;2.30;1.13;;;6.70;72.50;;;;;;5051350;28;20037;-71
2024/01/02 11:26:31;;;;;;;0.45;0.30;;;6.80;72.20;;;;;;5051451;28;20095;-69
2024/01/02 11:29:02;;;;;;;0.17;0.17;;;6.80;71.80;;;;;;5051402;28;20090;-70
2024/01/02 11:31:51;;;;;;;0.50;0.43;;;6.80;71.90;;;;;;5034186;28;20033;-71
2024/01/02 11:35:00;;;;;;;0.52;0.28;;;6.70;72.20;;;;;;5052704;28;20393;-71
2024/01/02 11:37:45;;;;;;;0.20;0.20;;;6.70;72.80;;;;;;5052895;28;20416;-71
2024/01/02 11:40:29;;;;;;;1.02;0.73;;;6.80;72.60;;;;;;5050360;28;20033;-71
2024/01/02 11:43:21;;;;;;;0.85;0.55;;;6.90;72.30;;;;;;5051216;28;20041;-69
2024/01/02 11:45:58;;;;;;;1.55;0.73;;;6.90;72.40;;;;;;5052255;28;20044;-74
2024/01/02 11:48:48;;;;;;;2.50;1.63;;;6.80;72.40;;;;;;5051062;28;20041;-69
2024/01/02 11:51:32;;;;;;;1.65;1.15;;;6.90;73.10;;;;;;5051825;28;20067;-69
2024/01/02 11:54:36;;;;;;;3.22;1.65;;;7.10;71.90;;;;;;5051019;28;20033;-69
2024/01/02 11:57:06;;;;;;;1.25;1.08;;;7.30;71.30;;;;;;5052253;28;20072;-70
2024/01/02 11:59:38;;;;;;;1.08;0.80;;;7.30;71.00;;;;;;5050956;28;20090;-71
2024/01/02 12:02:12;;;;;;;3.50;0.80;;;7.50;71.20;;;;;;5051704;28;20048;-71
2024/01/02 12:05:35;;;;;;;1.08;0.98;;;7.50;70.90;;;;;;5034835;28;20107;-71
2024/01/02 12:08:03;;;;;;;2.40;1.08;;;7.60;70.70;;;;;;5051989;28;20410;-71
2024/01/02 12:10:42;;;;;;;4.05;2.17;;;7.50;70.50;;;;;;5050100;28;20041;-69
2024/01/02 12:13:30;;;;;;;2.65;1.88;;;7.50;70.80;;;;;;5034519;28;20033;-71
2024/01/02 12:16:05;;;;;;;0.90;0.60;;;7.50;70.80;;;;;;5051944;28;20025;-71
2024/01/02 12:18:36;;;;;;;0.70;0.57;;;7.50;70.90;;;;;;5034107;28;20390;-69
2024/01/02 12:21:10;;;;;;;1.60;1.38;;;7.50;70.80;;;;;;5050140;28;20428;-71
2024/01/02 12:23:39;;;;;;;1.20;0.82;;;7.60;71.00;;;;;;5050736;28;20055;-70
2024/01/02 12:26:06;;;;;;;1.95;1.75;;;7.50;71.40;;;;;;5050544;28;20037;-70
2024/01/02 12:28:37;;;;;;;1.77;1.13;;;7.50;71.30;;;;;;5050553;28;20041;-71
2024/01/02 12:31:05;;;;;;;0.93;0.85;;;7.40;71.70;;;;;;5049902;28;20029;-71
2024/01/02 12:33:34;;;;;;;1.00;0.63;;;7.40;72.40;;;;;;5051955;28;20037;-71
2024/01/02 12:36:37;;;;;;;1.98;0.77;;;7.40;72.10;;;;;;5050566;28;20044;-72
2024/01/02 12:39:07;;;;;;;1.13;0.68;;;7.30;72.10;;;;;;5051782;28;20047;-69
2024/01/02 12:41:54;;;;;;;1.05;0.65;;;7.20;72.60;;;;;;5039064;28;20087;-70
2024/01/02 12:44:22;;;;;;;0.57;0.57;;;7.20;72.90;;;;;;5014147;28;20056;-71
2024/01/02 12:46:50;;;;;;;1.20;1.08;;;7.10;73.20;;;;;;5030392;28;20049;-74
2024/01/02 12:49:58;;;;;;;2.42;1.25;;;7.10;73.10;;;;;;5030421;28;20033;-73
2024/01/02 12:52:32;;;;;;;2.33;1.40;;;7.20;72.90;;;;;;5031699;28;20468;-71
2024/01/02 12:54:59;;;;;;;1.33;1.00;;;7.10;72.60;;;;;;5031723;28;20521;-69
2024/01/02 12:57:28;;;;;;;3.15;0.93;;;7.20;72.10;;;;;;5031927;28;20038;-69
2024/01/02 12:59:54;;;;;;;1.98;1.80;;;7.20;72.60;;;;;;5030453;28;20041;-71
2024/01/02 13:02:21;;;;;;;1.33;1.00;;;7.20;72.70;;;;;;5031431;28;20034;-71
2024/01/02 13:04:48;;;;;;;3.75;1.77;;;7.10;72.40;;;;;;5030432;28;20391;-71
2024/01/02 13:07:14;;;;;;;3.50;1.13;;;7.10;73.30;;;;;;5030106;28;20057;-70
2024/01/02 13:09:41;;;;;;;;;;;7.10;73.70;;;;;;5031012;28;20471;-71
2024/01/02 13:12:26;;;;;;;6.50;1.50;;;7.10;73.80;;;;;;5029935;28;19921;-69
2024/01/02 13:14:53;;;;;;;4.93;2.75;;;7.00;73.20;;;;;;5032429;28;20057;-71
2024/01/02 13:17:19;;;;;;;1.23;0.75;;;7.00;74.10;;;;;;5035483;28;20049;-70
2024/01/02 13:19:45;;;;;;;4.20;2.80;;;7.00;73.50;;;;;;5033764;28;20099;-70
2024/01/02 13:22:20;;;;;;;;;;;7.00;74.20;;;;;;5031541;28;20052;-69